GOES-16 Infra (Sul)

Satélite GOES-16 CPTEC

GOES-16 Visível (Sul)

Satélite CPTEC Visível

Radar

Sem informação disponível

Raios (Sul)

Radios Simepar

Pressão e ventos(nós)

Pressao e Ventos (Climatempo)

Previsão para Florianópolis

Sexta-feira

Essencialmente limpo. Máxima de 27°C. Ventos SSO a 15 a 30 km/h.


Sexta à noite

Aguaceiros. Mínima 21°C. Ventos S a 10 a 15 km/h. Possib. de chuva 50%.


Sábado

Possibilidade de Chuva

26º / 21º

Domingo

Parcialmente Nublado

27º / 21º

Segunda-feira

Possibilidade de Chuva

26º / 21º

Aeroporto Florianópolis/SC (FLN) - SBFL


Situação: Informação não disponível

Atualização: 0636 UTC 23 Feb 2018

Vento: 07KT (13,6 Km/h) - Oeste-noroeste (WNW) (290º)

Visibilidade: Maior que 10.000 metros (céu limpo)

Temperatura: 20ºC / 18ºC

Pressão: 1013 hPa

Data at: 0636 UTC 23 Feb 2018SBFL 230600Z 29007KT CAVOK 20/18 Q1013